sensor_id;sensor_type;location;lat;lon;timestamp;temperature;humidity
66102;HTU21D;52883;51.094;5.880;2022-09-24T00:01:10;12.89;118.99
66102;HTU21D;52883;51.094;5.880;2022-09-24T00:03:38;12.87;118.99
66102;HTU21D;52883;51.094;5.880;2022-09-24T00:06:05;12.85;118.99
66102;HTU21D;52883;51.094;5.880;2022-09-24T00:08:31;12.80;118.99
66102;HTU21D;52883;51.094;5.880;2022-09-24T00:11:01;12.78;118.99
66102;HTU21D;52883;51.094;5.880;2022-09-24T00:13:28;12.74;118.99
66102;HTU21D;52883;51.094;5.880;2022-09-24T00:15:54;12.73;118.99
66102;HTU21D;52883;51.094;5.880;2022-09-24T00:22:18;12.76;118.99
66102;HTU21D;52883;51.094;5.880;2022-09-24T00:25:07;12.73;118.99
66102;HTU21D;52883;51.094;5.880;2022-09-24T00:27:51;12.74;118.99
66102;HTU21D;52883;51.094;5.880;2022-09-24T00:30:16;12.74;118.99
66102;HTU21D;52883;51.094;5.880;2022-09-24T00:32:42;12.74;118.99
66102;HTU21D;52883;51.094;5.880;2022-09-24T00:35:07;12.76;118.99
66102;HTU21D;52883;51.094;5.880;2022-09-24T00:37:33;12.76;118.99
66102;HTU21D;52883;51.094;5.880;2022-09-24T00:39:59;12.78;118.99
66102;HTU21D;52883;51.094;5.880;2022-09-24T00:42:25;12.80;118.99
66102;HTU21D;52883;51.094;5.880;2022-09-24T00:44:53;12.80;118.99
66102;HTU21D;52883;51.094;5.880;2022-09-24T00:50:02;12.76;118.99
66102;HTU21D;52883;51.094;5.880;2022-09-24T00:52:31;12.72;118.99
66102;HTU21D;52883;51.094;5.880;2022-09-24T00:54:57;12.69;118.99
66102;HTU21D;52883;51.094;5.880;2022-09-24T00:57:24;12.62;118.99
66102;HTU21D;52883;51.094;5.880;2022-09-24T00:59:51;12.59;118.99
66102;HTU21D;52883;51.094;5.880;2022-09-24T01:02:19;12.55;118.99
66102;HTU21D;52883;51.094;5.880;2022-09-24T01:04:45;12.50;118.99
66102;HTU21D;52883;51.094;5.880;2022-09-24T01:07:11;12.48;118.99
66102;HTU21D;52883;51.094;5.880;2022-09-24T01:09:36;12.46;118.99
66102;HTU21D;52883;51.094;5.880;2022-09-24T01:28:22;12.35;118.99
66102;HTU21D;52883;51.094;5.880;2022-09-24T01:31:19;12.34;118.99
66102;HTU21D;52883;51.094;5.880;2022-09-24T01:33:51;12.31;118.99
66102;HTU21D;52883;51.094;5.880;2022-09-24T01:36:20;12.29;118.99
66102;HTU21D;52883;51.094;5.880;2022-09-24T01:38:50;12.28;118.99
66102;HTU21D;52883;51.094;5.880;2022-09-24T01:41:18;12.25;118.99
66102;HTU21D;52883;51.094;5.880;2022-09-24T01:43:44;12.22;118.99
66102;HTU21D;52883;51.094;5.880;2022-09-24T01:46:12;12.21;118.99
66102;HTU21D;52883;51.094;5.880;2022-09-24T01:48:39;12.17;118.99
66102;HTU21D;52883;51.094;5.880;2022-09-24T01:51:21;12.15;118.99
66102;HTU21D;52883;51.094;5.880;2022-09-24T01:53:54;12.15;118.99
66102;HTU21D;52883;51.094;5.880;2022-09-24T01:56:27;12.15;118.99
66102;HTU21D;52883;51.094;5.880;2022-09-24T01:59:05;12.14;118.99
66102;HTU21D;52883;51.094;5.880;2022-09-24T02:01:47;12.13;118.99
66102;HTU21D;52883;51.094;5.880;2022-09-24T02:04:19;12.17;118.99
66102;HTU21D;52883;51.094;5.880;2022-09-24T02:07:16;12.21;118.99
66102;HTU21D;52883;51.094;5.880;2022-09-24T02:09:43;12.28;118.99
66102;HTU21D;52883;51.094;5.880;2022-09-24T02:14:44;12.38;118.99
66102;HTU21D;52883;51.094;5.880;2022-09-24T02:17:13;12.42;118.99
66102;HTU21D;52883;51.094;5.880;2022-09-24T02:19:41;12.43;118.99
66102;HTU21D;52883;51.094;5.880;2022-09-24T02:22:09;12.45;118.99
66102;HTU21D;52883;51.094;5.880;2022-09-24T02:24:49;12.47;118.99
66102;HTU21D;52883;51.094;5.880;2022-09-24T02:27:16;12.50;118.99
66102;HTU21D;52883;51.094;5.880;2022-09-24T02:29:42;12.49;118.99
66102;HTU21D;52883;51.094;5.880;2022-09-24T02:32:13;12.46;118.99
66102;HTU21D;52883;51.094;5.880;2022-09-24T02:34:46;12.45;118.99
66102;HTU21D;52883;51.094;5.880;2022-09-24T02:37:14;12.47;118.99
66102;HTU21D;52883;51.094;5.880;2022-09-24T02:39:41;12.47;118.99
66102;HTU21D;52883;51.094;5.880;2022-09-24T02:42:09;12.50;118.99
66102;HTU21D;52883;51.094;5.880;2022-09-24T02:44:36;12.48;118.99
66102;HTU21D;52883;51.094;5.880;2022-09-24T02:47:02;12.48;118.99
66102;HTU21D;52883;51.094;5.880;2022-09-24T02:49:28;12.47;118.99
66102;HTU21D;52883;51.094;5.880;2022-09-24T02:51:54;12.46;118.99
66102;HTU21D;52883;51.094;5.880;2022-09-24T02:54:20;12.46;118.99
66102;HTU21D;52883;51.094;5.880;2022-09-24T02:56:47;12.46;118.99
66102;HTU21D;52883;51.094;5.880;2022-09-24T02:59:13;12.45;118.99
66102;HTU21D;52883;51.094;5.880;2022-09-24T03:01:39;12.44;118.99
66102;HTU21D;52883;51.094;5.880;2022-09-24T03:04:04;12.43;118.99
66102;HTU21D;52883;51.094;5.880;2022-09-24T03:06:30;12.42;118.99
66102;HTU21D;52883;51.094;5.880;2022-09-24T03:08:56;12.43;118.99
66102;HTU21D;52883;51.094;5.880;2022-09-24T03:11:22;12.43;118.99
66102;HTU21D;52883;51.094;5.880;2022-09-24T03:13:49;12.45;118.99
66102;HTU21D;52883;51.094;5.880;2022-09-24T03:16:16;12.46;118.99
66102;HTU21D;52883;51.094;5.880;2022-09-24T03:18:43;12.45;118.99
66102;HTU21D;52883;51.094;5.880;2022-09-24T03:21:13;12.45;118.99
66102;HTU21D;52883;51.094;5.880;2022-09-24T03:23:40;12.45;118.99
66102;HTU21D;52883;51.094;5.880;2022-09-24T03:26:06;12.46;118.99
66102;HTU21D;52883;51.094;5.880;2022-09-24T03:28:32;12.47;118.99
66102;HTU21D;52883;51.094;5.880;2022-09-24T03:30:58;12.48;118.99
66102;HTU21D;52883;51.094;5.880;2022-09-24T03:33:42;12.47;118.99
66102;HTU21D;52883;51.094;5.880;2022-09-24T03:36:09;12.47;118.99
66102;HTU21D;52883;51.094;5.880;2022-09-24T03:38:38;12.45;118.99
66102;HTU21D;52883;51.094;5.880;2022-09-24T03:41:05;12.43;118.99
66102;HTU21D;52883;51.094;5.880;2022-09-24T03:43:32;12.41;118.99
66102;HTU21D;52883;51.094;5.880;2022-09-24T03:45:58;12.40;118.99
66102;HTU21D;52883;51.094;5.880;2022-09-24T03:48:25;12.37;118.99
66102;HTU21D;52883;51.094;5.880;2022-09-24T03:50:52;12.35;118.99
66102;HTU21D;52883;51.094;5.880;2022-09-24T03:53:18;12.36;118.99
66102;HTU21D;52883;51.094;5.880;2022-09-24T03:55:55;12.33;118.99
66102;HTU21D;52883;51.094;5.880;2022-09-24T03:58:22;12.33;118.99
66102;HTU21D;52883;51.094;5.880;2022-09-24T04:00:52;12.31;118.99
66102;HTU21D;52883;51.094;5.880;2022-09-24T04:03:19;12.29;118.99
66102;HTU21D;52883;51.094;5.880;2022-09-24T04:05:45;12.27;118.99
66102;HTU21D;52883;51.094;5.880;2022-09-24T04:08:11;12.28;118.99
66102;HTU21D;52883;51.094;5.880;2022-09-24T04:10:36;12.26;118.99
66102;HTU21D;52883;51.094;5.880;2022-09-24T04:13:02;12.26;118.99
66102;HTU21D;52883;51.094;5.880;2022-09-24T04:15:28;12.26;118.99
66102;HTU21D;52883;51.094;5.880;2022-09-24T04:17:56;12.23;118.99
66102;HTU21D;52883;51.094;5.880;2022-09-24T04:20:25;12.25;118.99
66102;HTU21D;52883;51.094;5.880;2022-09-24T04:22:54;12.26;118.99
66102;HTU21D;52883;51.094;5.880;2022-09-24T04:25:21;12.27;118.99
66102;HTU21D;52883;51.094;5.880;2022-09-24T04:27:56;12.28;118.99
66102;HTU21D;52883;51.094;5.880;2022-09-24T04:30:23;12.29;118.99
66102;HTU21D;52883;51.094;5.880;2022-09-24T04:32:50;12.29;118.99
66102;HTU21D;52883;51.094;5.880;2022-09-24T04:35:20;12.30;118.99
66102;HTU21D;52883;51.094;5.880;2022-09-24T04:37:46;12.31;118.99
66102;HTU21D;52883;51.094;5.880;2022-09-24T04:40:13;12.31;118.99
66102;HTU21D;52883;51.094;5.880;2022-09-24T04:42:42;12.30;118.99
66102;HTU21D;52883;51.094;5.880;2022-09-24T04:45:09;12.28;118.99
66102;HTU21D;52883;51.094;5.880;2022-09-24T04:47:36;12.27;118.99
66102;HTU21D;52883;51.094;5.880;2022-09-24T04:50:07;12.29;118.99
66102;HTU21D;52883;51.094;5.880;2022-09-24T04:52:32;12.31;118.99
66102;HTU21D;52883;51.094;5.880;2022-09-24T04:54:59;12.32;118.99
66102;HTU21D;52883;51.094;5.880;2022-09-24T04:57:27;12.31;118.99
66102;HTU21D;52883;51.094;5.880;2022-09-24T04:59:53;12.32;118.99
66102;HTU21D;52883;51.094;5.880;2022-09-24T05:02:19;12.32;118.99
66102;HTU21D;52883;51.094;5.880;2022-09-24T05:04:44;12.31;118.99
66102;HTU21D;52883;51.094;5.880;2022-09-24T05:07:10;12.31;118.99
66102;HTU21D;52883;51.094;5.880;2022-09-24T05:09:36;12.33;118.99
66102;HTU21D;52883;51.094;5.880;2022-09-24T05:12:03;12.33;118.99
66102;HTU21D;52883;51.094;5.880;2022-09-24T05:14:28;12.34;118.99
66102;HTU21D;52883;51.094;5.880;2022-09-24T05:16:55;12.34;118.99
66102;HTU21D;52883;51.094;5.880;2022-09-24T05:19:21;12.33;118.99
66102;HTU21D;52883;51.094;5.880;2022-09-24T05:25:42;12.31;118.99
66102;HTU21D;52883;51.094;5.880;2022-09-24T05:28:26;12.30;118.99
66102;HTU21D;52883;51.094;5.880;2022-09-24T05:30:56;12.30;118.99
66102;HTU21D;52883;51.094;5.880;2022-09-24T05:33:21;12.28;118.99
66102;HTU21D;52883;51.094;5.880;2022-09-24T05:35:55;12.27;118.99
66102;HTU21D;52883;51.094;5.880;2022-09-24T05:38:23;12.23;118.99
66102;HTU21D;52883;51.094;5.880;2022-09-24T05:40:49;12.23;118.99
66102;HTU21D;52883;51.094;5.880;2022-09-24T05:43:16;12.23;118.99
66102;HTU21D;52883;51.094;5.880;2022-09-24T05:45:47;12.22;118.99
66102;HTU21D;52883;51.094;5.880;2022-09-24T05:48:15;12.23;118.99
66102;HTU21D;52883;51.094;5.880;2022-09-24T05:50:41;12.23;118.99
66102;HTU21D;52883;51.094;5.880;2022-09-24T05:53:07;12.23;118.99
66102;HTU21D;52883;51.094;5.880;2022-09-24T05:55:34;12.25;118.99
66102;HTU21D;52883;51.094;5.880;2022-09-24T05:58:07;12.26;118.99
66102;HTU21D;52883;51.094;5.880;2022-09-24T06:00:34;12.31;118.99
66102;HTU21D;52883;51.094;5.880;2022-09-24T06:03:05;12.35;118.99
66102;HTU21D;52883;51.094;5.880;2022-09-24T06:05:32;12.40;118.99
66102;HTU21D;52883;51.094;5.880;2022-09-24T06:08:03;12.44;118.99
66102;HTU21D;52883;51.094;5.880;2022-09-24T06:10:29;12.48;118.99
66102;HTU21D;52883;51.094;5.880;2022-09-24T06:12:55;12.55;118.99
66102;HTU21D;52883;51.094;5.880;2022-09-24T06:15:21;12.62;118.99
66102;HTU21D;52883;51.094;5.880;2022-09-24T06:17:47;12.72;118.99
66102;HTU21D;52883;51.094;5.880;2022-09-24T06:20:13;12.79;118.99
66102;HTU21D;52883;51.094;5.880;2022-09-24T06:22:39;12.90;118.99
66102;HTU21D;52883;51.094;5.880;2022-09-24T06:25:06;13.01;118.99
66102;HTU21D;52883;51.094;5.880;2022-09-24T06:27:32;13.10;118.99
66102;HTU21D;52883;51.094;5.880;2022-09-24T06:29:57;13.23;118.99
66102;HTU21D;52883;51.094;5.880;2022-09-24T06:32:24;13.35;118.99
66102;HTU21D;52883;51.094;5.880;2022-09-24T06:34:49;13.44;118.99
66102;HTU21D;52883;51.094;5.880;2022-09-24T06:37:15;13.51;118.99
66102;HTU21D;52883;51.094;5.880;2022-09-24T06:39:41;13.56;118.99
66102;HTU21D;52883;51.094;5.880;2022-09-24T06:42:07;13.61;118.99
66102;HTU21D;52883;51.094;5.880;2022-09-24T06:44:34;13.64;118.99
66102;HTU21D;52883;51.094;5.880;2022-09-24T06:46:59;13.66;118.99
66102;HTU21D;52883;51.094;5.880;2022-09-24T06:49:26;13.69;118.99
66102;HTU21D;52883;51.094;5.880;2022-09-24T06:51:55;13.73;118.99
66102;HTU21D;52883;51.094;5.880;2022-09-24T06:54:21;13.75;118.99
66102;HTU21D;52883;51.094;5.880;2022-09-24T06:56:48;13.80;118.99
66102;HTU21D;52883;51.094;5.880;2022-09-24T06:59:13;13.89;118.99
66102;HTU21D;52883;51.094;5.880;2022-09-24T07:01:39;13.97;118.99
66102;HTU21D;52883;51.094;5.880;2022-09-24T07:04:04;14.09;118.99
66102;HTU21D;52883;51.094;5.880;2022-09-24T07:06:30;14.21;118.99
66102;HTU21D;52883;51.094;5.880;2022-09-24T07:09:18;14.35;118.99
66102;HTU21D;52883;51.094;5.880;2022-09-24T07:11:43;14.44;118.99
66102;HTU21D;52883;51.094;5.880;2022-09-24T07:14:12;14.51;118.99
66102;HTU21D;52883;51.094;5.880;2022-09-24T07:16:38;14.55;118.99
66102;HTU21D;52883;51.094;5.880;2022-09-24T07:19:03;14.57;118.99
66102;HTU21D;52883;51.094;5.880;2022-09-24T07:21:29;14.55;118.99
66102;HTU21D;52883;51.094;5.880;2022-09-24T07:23:55;14.59;118.99
66102;HTU21D;52883;51.094;5.880;2022-09-24T07:26:20;14.66;118.99
66102;HTU21D;52883;51.094;5.880;2022-09-24T07:28:46;14.73;118.99
66102;HTU21D;52883;51.094;5.880;2022-09-24T07:31:12;14.75;118.99
66102;HTU21D;52883;51.094;5.880;2022-09-24T07:33:37;14.62;118.99
66102;HTU21D;52883;51.094;5.880;2022-09-24T07:36:05;14.51;118.99
66102;HTU21D;52883;51.094;5.880;2022-09-24T07:38:33;14.41;118.99
66102;HTU21D;52883;51.094;5.880;2022-09-24T07:41:01;14.36;118.99
66102;HTU21D;52883;51.094;5.880;2022-09-24T07:43:30;14.40;118.99
66102;HTU21D;52883;51.094;5.880;2022-09-24T07:45:57;14.40;118.99
66102;HTU21D;52883;51.094;5.880;2022-09-24T07:48:23;14.37;118.99
66102;HTU21D;52883;51.094;5.880;2022-09-24T07:50:49;14.35;118.99
66102;HTU21D;52883;51.094;5.880;2022-09-24T07:53:16;14.34;118.99
66102;HTU21D;52883;51.094;5.880;2022-09-24T07:55:42;14.40;118.99
66102;HTU21D;52883;51.094;5.880;2022-09-24T07:58:11;14.47;118.99
66102;HTU21D;52883;51.094;5.880;2022-09-24T08:00:38;14.57;118.99
66102;HTU21D;52883;51.094;5.880;2022-09-24T08:03:04;14.66;118.99
66102;HTU21D;52883;51.094;5.880;2022-09-24T08:05:30;14.75;118.99
66102;HTU21D;52883;51.094;5.880;2022-09-24T08:07:58;14.89;118.99
66102;HTU21D;52883;51.094;5.880;2022-09-24T08:10:25;15.07;118.99
66102;HTU21D;52883;51.094;5.880;2022-09-24T08:12:51;15.22;118.99
66102;HTU21D;52883;51.094;5.880;2022-09-24T08:15:17;15.37;118.99
66102;HTU21D;52883;51.094;5.880;2022-09-24T08:17:43;15.43;118.99
66102;HTU21D;52883;51.094;5.880;2022-09-24T08:20:09;15.34;118.99
66102;HTU21D;52883;51.094;5.880;2022-09-24T08:22:37;15.30;118.99
66102;HTU21D;52883;51.094;5.880;2022-09-24T08:25:03;15.42;118.99
66102;HTU21D;52883;51.094;5.880;2022-09-24T08:27:30;15.49;118.99
66102;HTU21D;52883;51.094;5.880;2022-09-24T08:29:57;15.46;118.99
66102;HTU21D;52883;51.094;5.880;2022-09-24T08:32:25;15.44;118.99
66102;HTU21D;52883;51.094;5.880;2022-09-24T08:34:51;15.47;118.99
66102;HTU21D;52883;51.094;5.880;2022-09-24T08:37:17;15.52;118.99
66102;HTU21D;52883;51.094;5.880;2022-09-24T08:39:42;15.52;118.99
66102;HTU21D;52883;51.094;5.880;2022-09-24T08:45:01;15.75;118.99
66102;HTU21D;52883;51.094;5.880;2022-09-24T08:48:11;15.89;118.99
66102;HTU21D;52883;51.094;5.880;2022-09-24T08:50:51;16.04;118.99
66102;HTU21D;52883;51.094;5.880;2022-09-24T08:56:05;16.33;118.99
66102;HTU21D;52883;51.094;5.880;2022-09-24T09:09:17;17.09;118.99
66102;HTU21D;52883;51.094;5.880;2022-09-24T09:11:49;17.22;118.99
66102;HTU21D;52883;51.094;5.880;2022-09-24T09:14:33;17.44;118.99
66102;HTU21D;52883;51.094;5.880;2022-09-24T09:17:05;17.54;118.99
66102;HTU21D;52883;51.094;5.880;2022-09-24T09:19:38;17.61;118.99
66102;HTU21D;52883;51.094;5.880;2022-09-24T09:22:14;17.70;118.99
66102;HTU21D;52883;51.094;5.880;2022-09-24T09:24:47;17.75;118.99
66102;HTU21D;52883;51.094;5.880;2022-09-24T09:27:16;17.79;118.99
66102;HTU21D;52883;51.094;5.880;2022-09-24T09:29:47;17.73;118.99
66102;HTU21D;52883;51.094;5.880;2022-09-24T09:32:30;17.76;118.99
66102;HTU21D;52883;51.094;5.880;2022-09-24T09:43:27;18.04;118.99
66102;HTU21D;52883;51.094;5.880;2022-09-24T09:46:13;18.18;118.99
66102;HTU21D;52883;51.094;5.880;2022-09-24T09:49:15;18.39;118.99
66102;HTU21D;52883;51.094;5.880;2022-09-24T09:51:46;18.47;118.99
66102;HTU21D;52883;51.094;5.880;2022-09-24T09:54:13;18.62;118.99
66102;HTU21D;52883;51.094;5.880;2022-09-24T09:56:46;18.69;118.99
66102;HTU21D;52883;51.094;5.880;2022-09-24T09:59:16;18.78;118.99
66102;HTU21D;52883;51.094;5.880;2022-09-24T10:01:46;18.87;118.99
66102;HTU21D;52883;51.094;5.880;2022-09-24T10:04:37;19.00;118.99
66102;HTU21D;52883;51.094;5.880;2022-09-24T10:07:13;19.17;118.99
66102;HTU21D;52883;51.094;5.880;2022-09-24T10:09:41;19.22;118.99
66102;HTU21D;52883;51.094;5.880;2022-09-24T10:14:34;19.48;118.99
66102;HTU21D;52883;51.094;5.880;2022-09-24T10:17:01;19.69;118.99
66102;HTU21D;52883;51.094;5.880;2022-09-24T10:19:34;19.97;118.99
66102;HTU21D;52883;51.094;5.880;2022-09-24T10:22:18;20.20;118.99
66102;HTU21D;52883;51.094;5.880;2022-09-24T10:24:46;20.48;118.99
66102;HTU21D;52883;51.094;5.880;2022-09-24T10:27:20;20.80;118.99
66102;HTU21D;52883;51.094;5.880;2022-09-24T10:29:52;21.13;118.99
66102;HTU21D;52883;51.094;5.880;2022-09-24T10:32:38;21.30;118.99
66102;HTU21D;52883;51.094;5.880;2022-09-24T10:35:24;21.22;118.99
66102;HTU21D;52883;51.094;5.880;2022-09-24T10:37:52;21.19;118.99
66102;HTU21D;52883;51.094;5.880;2022-09-24T10:40:22;20.98;118.99
66102;HTU21D;52883;51.094;5.880;2022-09-24T10:43:01;20.93;118.99
66102;HTU21D;52883;51.094;5.880;2022-09-24T10:48:15;20.91;118.99
66102;HTU21D;52883;51.094;5.880;2022-09-24T10:50:45;21.05;118.99
66102;HTU21D;52883;51.094;5.880;2022-09-24T10:53:26;20.91;118.99
66102;HTU21D;52883;51.094;5.880;2022-09-24T11:04:21;20.40;118.99
66102;HTU21D;52883;51.094;5.880;2022-09-24T11:07:17;20.31;118.99
66102;HTU21D;52883;51.094;5.880;2022-09-24T11:16:10;20.30;118.99
66102;HTU21D;52883;51.094;5.880;2022-09-24T11:18:40;20.40;118.99
66102;HTU21D;52883;51.094;5.880;2022-09-24T11:27:10;21.08;118.99
66102;HTU21D;52883;51.094;5.880;2022-09-24T11:30:06;21.51;118.99
66102;HTU21D;52883;51.094;5.880;2022-09-24T11:35:42;21.98;118.99
66102;HTU21D;52883;51.094;5.880;2022-09-24T11:41:06;22.91;118.99
66102;HTU21D;52883;51.094;5.880;2022-09-24T11:54:46;22.87;118.99
66102;HTU21D;52883;51.094;5.880;2022-09-24T11:57:24;23.11;118.99
66102;HTU21D;52883;51.094;5.880;2022-09-24T12:00:02;23.21;118.99
66102;HTU21D;52883;51.094;5.880;2022-09-24T12:02:39;23.28;118.99
66102;HTU21D;52883;51.094;5.880;2022-09-24T12:05:16;23.24;118.99
66102;HTU21D;52883;51.094;5.880;2022-09-24T12:07:54;22.91;118.99
66102;HTU21D;52883;51.094;5.880;2022-09-24T12:10:23;22.60;118.99
66102;HTU21D;52883;51.094;5.880;2022-09-24T12:12:53;22.46;118.99
66102;HTU21D;52883;51.094;5.880;2022-09-24T12:15:28;22.41;118.99
66102;HTU21D;52883;51.094;5.880;2022-09-24T12:18:28;22.33;118.99
66102;HTU21D;52883;51.094;5.880;2022-09-24T12:21:09;22.47;118.99
66102;HTU21D;52883;51.094;5.880;2022-09-24T12:23:41;22.65;118.99
66102;HTU21D;52883;51.094;5.880;2022-09-24T12:26:12;22.61;118.99
66102;HTU21D;52883;51.094;5.880;2022-09-24T12:38:09;22.35;118.99
66102;HTU21D;52883;51.094;5.880;2022-09-24T12:43:25;22.84;118.99
66102;HTU21D;52883;51.094;5.880;2022-09-24T12:46:00;23.05;118.99
66102;HTU21D;52883;51.094;5.880;2022-09-24T12:48:30;23.18;118.99
66102;HTU21D;52883;51.094;5.880;2022-09-24T12:51:00;23.17;118.99
66102;HTU21D;52883;51.094;5.880;2022-09-24T12:53:33;23.16;118.99
66102;HTU21D;52883;51.094;5.880;2022-09-24T12:56:01;23.31;118.99
66102;HTU21D;52883;51.094;5.880;2022-09-24T13:01:24;23.43;118.99
66102;HTU21D;52883;51.094;5.880;2022-09-24T13:06:46;23.88;118.26
66102;HTU21D;52883;51.094;5.880;2022-09-24T13:09:32;24.04;115.71
66102;HTU21D;52883;51.094;5.880;2022-09-24T13:14:45;23.45;116.06
66102;HTU21D;52883;51.094;5.880;2022-09-24T13:17:15;23.13;115.96
66102;HTU21D;52883;51.094;5.880;2022-09-24T13:19:43;22.93;118.99
66102;HTU21D;52883;51.094;5.880;2022-09-24T13:22:36;22.66;118.99
66102;HTU21D;52883;51.094;5.880;2022-09-24T13:25:19;22.29;118.99
66102;HTU21D;52883;51.094;5.880;2022-09-24T13:27:59;21.91;118.99
66102;HTU21D;52883;51.094;5.880;2022-09-24T13:33:26;21.24;118.99
66102;HTU21D;52883;51.094;5.880;2022-09-24T13:38:48;20.95;118.99
66102;HTU21D;52883;51.094;5.880;2022-09-24T13:44:12;20.46;118.99
66102;HTU21D;52883;51.094;5.880;2022-09-24T13:46:44;20.30;118.99
66102;HTU21D;52883;51.094;5.880;2022-09-24T13:49:16;20.18;118.99
66102;HTU21D;52883;51.094;5.880;2022-09-24T13:51:46;20.11;118.99
66102;HTU21D;52883;51.094;5.880;2022-09-24T13:54:30;19.96;118.99
66102;HTU21D;52883;51.094;5.880;2022-09-24T13:57:22;19.84;118.99
66102;HTU21D;52883;51.094;5.880;2022-09-24T13:59:48;19.85;118.99
66102;HTU21D;52883;51.094;5.880;2022-09-24T14:02:23;19.84;118.99
66102;HTU21D;52883;51.094;5.880;2022-09-24T14:04:59;19.81;118.99
66102;HTU21D;52883;51.094;5.880;2022-09-24T14:07:26;19.80;118.99
66102;HTU21D;52883;51.094;5.880;2022-09-24T14:10:12;19.82;118.99
66102;HTU21D;52883;51.094;5.880;2022-09-24T14:12:38;19.83;118.99
66102;HTU21D;52883;51.094;5.880;2022-09-24T14:15:15;19.81;118.99
66102;HTU21D;52883;51.094;5.880;2022-09-24T14:17:42;19.81;118.99
66102;HTU21D;52883;51.094;5.880;2022-09-24T14:20:13;19.86;118.99
66102;HTU21D;52883;51.094;5.880;2022-09-24T14:22:44;19.80;118.99
66102;HTU21D;52883;51.094;5.880;2022-09-24T14:25:22;19.67;118.99
66102;HTU21D;52883;51.094;5.880;2022-09-24T14:27:50;19.58;118.99
66102;HTU21D;52883;51.094;5.880;2022-09-24T14:30:20;19.55;118.99
66102;HTU21D;52883;51.094;5.880;2022-09-24T14:35:34;19.45;118.99
66102;HTU21D;52883;51.094;5.880;2022-09-24T14:38:15;19.38;118.99
66102;HTU21D;52883;51.094;5.880;2022-09-24T14:40:47;19.30;118.99
66102;HTU21D;52883;51.094;5.880;2022-09-24T14:43:38;19.16;118.99
66102;HTU21D;52883;51.094;5.880;2022-09-24T14:46:15;19.09;118.99
66102;HTU21D;52883;51.094;5.880;2022-09-24T14:48:42;19.05;118.99
66102;HTU21D;52883;51.094;5.880;2022-09-24T14:51:28;18.94;118.99
66102;HTU21D;52883;51.094;5.880;2022-09-24T14:54:03;18.92;118.99
66102;HTU21D;52883;51.094;5.880;2022-09-24T14:56:42;18.92;118.99
66102;HTU21D;52883;51.094;5.880;2022-09-24T14:59:30;18.82;118.99
66102;HTU21D;52883;51.094;5.880;2022-09-24T15:02:29;18.63;118.99
66102;HTU21D;52883;51.094;5.880;2022-09-24T15:05:04;18.48;118.99
66102;HTU21D;52883;51.094;5.880;2022-09-24T15:07:32;18.40;118.99
66102;HTU21D;52883;51.094;5.880;2022-09-24T15:10:02;18.25;118.99
66102;HTU21D;52883;51.094;5.880;2022-09-24T15:12:34;18.06;118.99
66102;HTU21D;52883;51.094;5.880;2022-09-24T15:17:46;17.89;118.99
66102;HTU21D;52883;51.094;5.880;2022-09-24T15:20:12;17.81;118.99
66102;HTU21D;52883;51.094;5.880;2022-09-24T15:22:38;17.69;118.99
66102;HTU21D;52883;51.094;5.880;2022-09-24T15:25:05;17.60;118.99
66102;HTU21D;52883;51.094;5.880;2022-09-24T15:27:39;17.48;118.99
66102;HTU21D;52883;51.094;5.880;2022-09-24T15:30:11;17.30;118.99
66102;HTU21D;52883;51.094;5.880;2022-09-24T15:32:38;17.11;118.99
66102;HTU21D;52883;51.094;5.880;2022-09-24T15:35:05;16.85;118.99
66102;HTU21D;52883;51.094;5.880;2022-09-24T15:37:37;16.46;118.99
66102;HTU21D;52883;51.094;5.880;2022-09-24T15:40:23;16.11;118.99
66102;HTU21D;52883;51.094;5.880;2022-09-24T15:42:50;15.91;118.99
66102;HTU21D;52883;51.094;5.880;2022-09-24T15:45:21;15.74;118.99
66102;HTU21D;52883;51.094;5.880;2022-09-24T15:47:49;15.57;118.99
66102;HTU21D;52883;51.094;5.880;2022-09-24T15:50:16;15.08;118.99
66102;HTU21D;52883;51.094;5.880;2022-09-24T15:55:17;14.55;118.99
66102;HTU21D;52883;51.094;5.880;2022-09-24T15:57:44;14.38;118.99
66102;HTU21D;52883;51.094;5.880;2022-09-24T16:00:19;14.35;118.99
66102;HTU21D;52883;51.094;5.880;2022-09-24T16:02:51;14.39;118.99
66102;HTU21D;52883;51.094;5.880;2022-09-24T16:05:18;14.35;118.99
66102;HTU21D;52883;51.094;5.880;2022-09-24T16:07:43;14.30;118.99
66102;HTU21D;52883;51.094;5.880;2022-09-24T16:10:11;14.27;118.99
66102;HTU21D;52883;51.094;5.880;2022-09-24T16:12:38;14.23;118.99
66102;HTU21D;52883;51.094;5.880;2022-09-24T16:15:05;14.19;118.99
66102;HTU21D;52883;51.094;5.880;2022-09-24T16:17:31;14.21;118.99
66102;HTU21D;52883;51.094;5.880;2022-09-24T16:19:57;14.27;118.99
66102;HTU21D;52883;51.094;5.880;2022-09-24T16:22:23;14.25;118.99
66102;HTU21D;52883;51.094;5.880;2022-09-24T16:24:49;14.28;118.99
66102;HTU21D;52883;51.094;5.880;2022-09-24T16:27:14;14.33;118.99
66102;HTU21D;52883;51.094;5.880;2022-09-24T16:29:40;14.32;118.99
66102;HTU21D;52883;51.094;5.880;2022-09-24T16:32:06;14.33;118.99
66102;HTU21D;52883;51.094;5.880;2022-09-24T16:34:31;14.32;118.99
66102;HTU21D;52883;51.094;5.880;2022-09-24T16:36:57;14.27;118.99
66102;HTU21D;52883;51.094;5.880;2022-09-24T16:39:23;14.26;118.99
66102;HTU21D;52883;51.094;5.880;2022-09-24T16:41:50;14.28;118.99
66102;HTU21D;52883;51.094;5.880;2022-09-24T16:44:16;14.28;118.99
66102;HTU21D;52883;51.094;5.880;2022-09-24T16:46:43;14.30;118.99
66102;HTU21D;52883;51.094;5.880;2022-09-24T16:49:09;14.30;118.99
66102;HTU21D;52883;51.094;5.880;2022-09-24T16:51:35;14.36;118.99
66102;HTU21D;52883;51.094;5.880;2022-09-24T16:54:01;14.39;118.99
66102;HTU21D;52883;51.094;5.880;2022-09-24T16:56:26;14.41;118.99
66102;HTU21D;52883;51.094;5.880;2022-09-24T16:58:53;14.30;118.99
66102;HTU21D;52883;51.094;5.880;2022-09-24T17:01:20;14.21;118.99
66102;HTU21D;52883;51.094;5.880;2022-09-24T17:03:52;14.09;118.99
66102;HTU21D;52883;51.094;5.880;2022-09-24T17:06:20;14.04;118.99
66102;HTU21D;52883;51.094;5.880;2022-09-24T17:08:47;14.01;118.99
66102;HTU21D;52883;51.094;5.880;2022-09-24T17:11:31;13.99;118.99
66102;HTU21D;52883;51.094;5.880;2022-09-24T17:13:57;14.00;118.99
66102;HTU21D;52883;51.094;5.880;2022-09-24T17:16:23;13.99;118.99
66102;HTU21D;52883;51.094;5.880;2022-09-24T17:18:52;14.00;118.99
66102;HTU21D;52883;51.094;5.880;2022-09-24T17:21:22;14.05;118.99
66102;HTU21D;52883;51.094;5.880;2022-09-24T17:23:50;14.06;118.99
66102;HTU21D;52883;51.094;5.880;2022-09-24T17:26:19;14.10;118.99
66102;HTU21D;52883;51.094;5.880;2022-09-24T17:28:48;14.10;118.99
66102;HTU21D;52883;51.094;5.880;2022-09-24T17:31:17;14.12;118.99
66102;HTU21D;52883;51.094;5.880;2022-09-24T17:33:46;14.14;118.99
66102;HTU21D;52883;51.094;5.880;2022-09-24T17:36:13;14.11;118.99